Time;durP1;ratioP1;P1;durP2;ratioP2;P2;SDS_P1;SDS_P2;PMS_P1;PMS_P2;Temp;Humidity;BMP_temperature;BMP_pressure;BME280_temperature;BME280_humidity;BME280_pressure;Samples;Min_cycle;Max_cycle;Signal;HPM_P1;HPM_P2
2022/04/05 00:00:43;;;;;;;;;11.00;11.00;;;;;9.70;58.95;100807.16;4990806;28;46874;-82
2022/04/05 00:03:09;;;;;;;;;16.50;16.50;;;;;9.70;58.96;100804.53;4997670;28;45280;-82
2022/04/05 00:05:34;;;;;;;;;14.25;14.00;;;;;9.71;59.25;100803.72;5006767;28;45051;-82
2022/04/05 00:07:59;;;;;;;;;19.33;17.00;;;;;9.64;59.06;100788.56;5009639;28;45026;-82
2022/04/05 00:10:25;;;;;;;;;13.50;12.25;;;;;9.75;59.39;100796.03;5009407;28;45170;-82
2022/04/05 00:12:51;;;;;;;;;15.25;13.50;;;;;9.95;59.18;100830.91;5007261;28;45573;-82
2022/04/05 00:15:16;;;;;;;;;15.00;15.00;;;;;10.09;58.91;100857.69;5005036;28;45247;-82
2022/04/05 00:17:41;;;;;;;;;14.00;12.75;;;;;10.03;59.34;100839.97;4991802;28;45220;-82
2022/04/05 00:20:08;;;;;;;;;13.75;13.50;;;;;10.09;59.50;100847.19;5009557;28;45448;-82
2022/04/05 00:22:34;;;;;;;;;15.50;15.50;;;;;9.91;59.54;100809.75;4984008;28;45609;-82
2022/04/05 00:25:00;;;;;;;;;16.50;15.50;;;;;10.12;59.53;100844.69;5006338;28;45050;-82
2022/04/05 00:27:25;;;;;;;;;15.00;13.50;;;;;10.04;59.55;100835.59;5000842;28;45239;-82
2022/04/05 00:29:51;;;;;;;;;12.75;12.00;;;;;9.76;59.91;100789.03;5004313;28;46069;-82
2022/04/05 00:32:16;;;;;;;;;17.25;13.75;;;;;10.07;59.77;100847.13;5009131;28;45461;-81
2022/04/05 00:34:42;;;;;;;;;11.00;10.25;;;;;9.85;59.87;100813.00;4991632;28;45188;-82
2022/04/05 00:37:08;;;;;;;;;19.00;18.75;;;;;9.93;60.15;100832.56;4986393;28;45422;-82
2022/04/05 00:39:34;;;;;;;;;17.25;15.75;;;;;9.82;60.34;100811.16;4998009;28;45256;-82
2022/04/05 00:41:59;;;;;;;;;14.25;14.25;;;;;9.79;60.41;100803.16;4991250;28;45304;-82
2022/04/05 00:44:25;;;;;;;;;17.50;16.00;;;;;10.04;60.42;100848.72;4982271;28;45130;-82
2022/04/05 00:46:52;;;;;;;;;13.25;13.25;;;;;9.83;60.39;100818.19;4999523;28;45215;-82
2022/04/05 00:49:30;;;;;;;;;15.25;12.00;;;;;9.80;60.54;100807.59;4983946;28;47695;-82
2022/04/05 00:52:00;;;;;;;;;17.50;13.75;;;;;9.98;60.55;100838.91;5008884;28;45587;-82
2022/04/05 00:54:28;;;;;;;;;16.75;15.25;;;;;9.99;60.82;100834.53;5008743;28;45131;-82
2022/04/05 00:56:56;;;;;;;;;17.00;15.75;;;;;9.81;60.92;100808.50;5009095;28;45203;-82
2022/04/05 00:59:25;;;;;;;;;14.75;14.50;;;;;10.09;61.25;100849.81;5001294;28;45742;-81
2022/04/05 01:01:54;;;;;;;;;15.75;14.75;;;;;9.92;61.25;100820.28;4987174;28;45621;-82
2022/04/05 01:04:21;;;;;;;;;16.50;15.75;;;;;9.83;61.21;100801.56;5008408;28;45213;-82
2022/04/05 01:06:48;;;;;;;;;12.00;12.00;;;;;10.09;61.46;100842.81;4990790;28;45098;-82
2022/04/05 01:09:14;;;;;;;;;12.00;12.00;;;;;9.88;61.41;100810.50;4989786;28;47581;-82
2022/04/05 01:11:39;;;;;;;;;12.50;12.50;;;;;10.06;61.54;100847.06;5003005;28;45831;-82
2022/04/05 01:14:05;;;;;;;;;13.75;13.00;;;;;9.69;62.01;100779.13;4979401;28;45024;-82
2022/04/05 01:16:31;;;;;;;;;15.50;14.50;;;;;9.59;61.80;100753.38;4980968;28;45219;-82
2022/04/05 01:18:57;;;;;;;;;12.75;12.25;;;;;9.92;62.08;100814.16;5008349;28;45536;-82
2022/04/05 01:21:22;;;;;;;;;15.25;13.75;;;;;9.68;62.13;100775.63;5002761;28;45274;-82
2022/04/05 01:24:10;;;;;;;;;17.75;16.00;;;;;10.05;62.55;100829.53;4980557;28;45462;-82
2022/04/05 01:26:41;;;;;;;;;10.50;9.00;;;;;10.08;62.31;100840.13;5008379;28;45090;-82
2022/04/05 01:29:07;;;;;;;;;16.00;15.75;;;;;9.81;62.55;100784.88;4990363;28;47604;-82
2022/04/05 01:31:44;;;;;;;;;13.25;13.25;;;;;9.66;62.58;100752.78;5005481;28;45214;-82
2022/04/05 01:34:11;;;;;;;;;13.50;13.50;;;;;9.96;62.78;100802.94;4982274;28;45185;-82
2022/04/05 01:36:50;;;;;;;;;14.25;14.25;;;;;9.57;62.76;100725.34;5008759;28;45109;-82
2022/04/05 01:39:16;;;;;;;;;12.00;12.00;;;;;10.13;63.02;100817.56;5023392;28;47568;-81
2022/04/05 01:41:43;;;;;;;;;14.25;12.00;;;;;10.09;62.86;100818.28;5006653;28;45459;-82
2022/04/05 01:44:10;;;;;;;;;12.25;11.75;;;;;9.80;62.85;100760.34;5003780;28;45150;-82
2022/04/05 01:46:35;;;;;;;;;16.25;16.00;;;;;10.08;63.00;100811.25;5020274;28;45228;-82
2022/04/05 01:49:01;;;;;;;;;12.00;11.25;;;;;10.06;63.31;100813.84;5026550;28;45878;-82
2022/04/05 01:51:27;;;;;;;;;14.50;13.00;;;;;10.08;63.01;100814.78;5008545;28;45123;-82
2022/04/05 01:53:53;;;;;;;;;16.75;15.75;;;;;9.92;63.60;100793.16;5005960;28;45310;-82
2022/04/05 01:56:18;;;;;;;;;13.00;11.75;;;;;9.72;63.34;100759.16;4997067;28;45119;-82
2022/04/05 01:58:43;;;;;;;;;15.25;12.00;;;;;9.74;63.51;100769.69;4970893;28;47651;-82
2022/04/05 02:01:09;;;;;;;;;17.00;16.00;;;;;10.04;63.71;100819.84;4988108;28;45119;-82
2022/04/05 02:03:35;;;;;;;;;14.75;13.75;;;;;10.00;63.83;100807.44;4989385;28;45139;-82
2022/04/05 02:06:00;;;;;;;;;13.00;12.00;;;;;9.90;63.93;100795.72;4988337;28;44992;-82
2022/04/05 02:08:25;;;;;;;;;16.75;16.25;;;;;9.68;64.10;100748.47;5001789;28;45141;-82
2022/04/05 02:10:51;;;;;;;;;13.50;12.50;;;;;10.04;64.07;100806.72;5006873;28;45018;-81
2022/04/05 02:13:16;;;;;;;;;16.25;15.00;;;;;9.68;64.45;100737.97;5008280;28;45168;-82
2022/04/05 02:15:41;;;;;;;;;13.00;11.75;;;;;9.90;64.34;100776.41;5007745;28;45207;-82
2022/04/05 02:18:07;;;;;;;;;13.33;12.00;;;;;9.98;64.20;100788.13;4995801;28;45471;-82
2022/04/05 02:20:33;;;;;;;;;15.25;12.75;;;;;9.89;64.09;100772.91;5007769;28;45168;-82
2022/04/05 02:22:59;;;;;;;;;15.00;13.75;;;;;10.07;64.50;100798.97;5006948;28;45169;-82
2022/04/05 02:25:26;;;;;;;;;16.00;15.00;;;;;9.96;64.47;100792.44;5007571;28;45070;-82
2022/04/05 02:27:51;;;;;;;;;12.25;12.00;;;;;9.78;64.52;100758.50;5005917;28;45357;-82
2022/04/05 02:30:17;;;;;;;;;12.75;12.00;;;;;9.89;65.00;100780.78;4997657;28;45154;-82
2022/04/05 02:32:42;;;;;;;;;16.00;13.67;;;;;9.83;65.16;100763.06;4988491;28;45153;-82
2022/04/05 02:35:13;;;;;;;;;14.67;14.00;;;;;10.06;65.22;100808.59;5001001;28;45044;-82
2022/04/05 02:37:39;;;;;;;;;11.50;11.00;;;;;9.95;65.28;100788.00;4986419;28;47548;-82
2022/04/05 02:40:05;;;;;;;;;12.00;11.75;;;;;9.90;65.33;100773.78;4996868;28;45185;-81
2022/04/05 02:42:30;;;;;;;;;15.75;13.25;;;;;10.05;65.48;100798.03;5003060;28;45223;-82
2022/04/05 02:44:56;;;;;;;;;12.50;12.50;;;;;9.87;65.21;100763.19;5006981;28;44894;-82
2022/04/05 02:47:22;;;;;;;;;13.50;12.25;;;;;9.71;65.42;100736.38;4989845;28;46206;-82
2022/04/05 02:49:47;;;;;;;;;16.50;15.75;;;;;9.99;65.43;100782.91;4989730;28;45083;-81
2022/04/05 02:52:15;;;;;;;;;16.50;15.75;;;;;9.70;65.64;100734.56;5001001;28;45136;-82
2022/04/05 02:54:41;;;;;;;;;14.50;13.25;;;;;9.88;65.78;100768.50;4997969;28;45107;-82
2022/04/05 02:57:06;;;;;;;;;15.00;14.00;;;;;9.81;65.87;100753.38;5007341;28;45369;-82
2022/04/05 02:59:31;;;;;;;;;17.00;16.00;;;;;10.00;65.96;100791.69;5007257;28;45455;-82
2022/04/05 03:01:57;;;;;;;;;13.25;11.50;;;;;9.80;66.12;100746.31;5004230;28;45217;-82
2022/04/05 03:04:22;;;;;;;;;14.33;14.33;;;;;9.88;66.01;100768.50;4999486;28;45135;-82
2022/04/05 03:06:47;;;;;;;;;20.00;18.50;;;;;9.89;66.59;100777.25;5021365;28;47585;-80
2022/04/05 03:09:13;;;;;;;;;18.50;18.00;;;;;9.90;66.45;100774.72;5007245;28;45061;-82
2022/04/05 03:11:38;;;;;;;;;23.50;22.25;;;;;9.67;66.60;100737.09;5007337;28;45050;-82
2022/04/05 03:14:03;;;;;;;;;15.00;15.00;;;;;9.90;66.55;100771.16;5001482;28;45205;-82
2022/04/05 03:16:29;;;;;;;;;16.50;15.25;;;;;9.70;67.31;100745.06;4978420;28;46933;-82
2022/04/05 03:18:54;;;;;;;;;16.50;15.25;;;;;9.89;67.02;100778.16;5000980;28;45155;-82
2022/04/05 03:21:20;;;;;;;;;17.75;15.50;;;;;9.95;66.89;100782.75;5007100;28;45483;-82
2022/04/05 03:23:45;;;;;;;;;17.00;16.25;;;;;9.54;67.72;100714.72;4987776;28;45169;-82
2022/04/05 03:26:11;;;;;;;;;19.50;18.25;;;;;9.57;67.58;100722.72;4977543;28;47192;-82
2022/04/05 03:28:36;;;;;;;;;19.50;17.00;;;;;9.53;67.46;100719.94;4988154;28;45229;-82
2022/04/05 03:31:02;;;;;;;;;18.00;16.00;;;;;9.57;68.10;100733.22;4994602;28;45245;-82
2022/04/05 03:33:27;;;;;;;;;14.00;12.25;;;;;9.59;68.05;100735.91;4991382;28;45221;-82
2022/04/05 03:35:55;;;;;;;;;16.25;15.50;;;;;9.47;68.27;100704.84;5008917;28;45621;-82
2022/04/05 03:38:20;;;;;;;;;12.25;11.50;;;;;9.45;68.98;100706.50;4999393;28;45325;-82
2022/04/05 03:40:46;;;;;;;;;13.25;12.75;;;;;9.62;69.02;100738.66;4992087;28;45083;-81
2022/04/05 03:43:12;;;;;;;;;14.50;13.75;;;;;9.34;68.73;100701.69;4992489;28;45093;-82
2022/04/05 03:45:39;;;;;;;;;16.00;15.50;;;;;9.74;70.22;100773.22;5009963;28;45250;-82
2022/04/05 03:48:04;;;;;;;;;14.00;13.25;;;;;9.73;69.87;100775.78;5002720;28;45533;-82
2022/04/05 03:50:31;;;;;;;;;17.25;16.25;;;;;9.38;69.86;100714.97;5010406;28;45062;-82
2022/04/05 03:52:59;;;;;;;;;17.00;16.75;;;;;9.66;69.64;100756.31;5009685;28;45490;-82
2022/04/05 03:55:25;;;;;;;;;17.00;16.00;;;;;9.42;70.17;100713.38;5009779;28;46110;-82
2022/04/05 03:57:50;;;;;;;;;15.75;15.25;;;;;9.39;69.76;100700.13;5008718;28;45148;-82
2022/04/05 04:00:16;;;;;;;;;14.00;12.75;;;;;9.55;70.13;100736.59;4998759;28;45039;-82
2022/04/05 04:02:41;;;;;;;;;15.25;14.00;;;;;9.51;70.22;100737.34;4977635;28;45141;-82
2022/04/05 04:05:07;;;;;;;;;17.00;16.33;;;;;9.34;70.56;100704.31;4982162;28;47951;-82
2022/04/05 04:07:38;;;;;;;;;17.75;13.00;;;;;9.56;70.89;100736.69;5009216;28;45116;-82
2022/04/05 04:10:04;;;;;;;;;15.00;15.00;;;;;9.58;71.04;100744.63;5003334;28;45082;-82
2022/04/05 04:12:29;;;;;;;;;18.00;16.75;;;;;9.46;71.55;100723.16;5009790;28;45149;-82
2022/04/05 04:14:54;;;;;;;;;12.00;10.50;;;;;9.36;71.61;100708.81;5009254;28;45868;-82
2022/04/05 04:17:20;;;;;;;;;16.33;16.33;;;;;9.53;71.54;100741.81;5009808;28;45113;-83
2022/04/05 04:19:45;;;;;;;;;16.00;15.00;;;;;9.22;71.56;100682.03;5010065;28;45382;-82
2022/04/05 04:22:10;;;;;;;;;16.00;16.00;;;;;9.06;71.84;100656.03;5001056;28;45155;-82
2022/04/05 04:24:36;;;;;;;;;14.00;14.00;;;;;9.29;72.18;100693.63;4976732;28;47012;-82
2022/04/05 04:27:01;;;;;;;;;16.00;16.00;;;;;9.30;72.42;100708.53;4985782;28;45382;-81
2022/04/05 04:29:26;;;;;;;;;15.00;15.00;;;;;9.40;72.53;100723.78;5006767;28;45221;-82
2022/04/05 04:31:52;;;;;;;;;19.33;17.33;;;;;9.24;72.40;100698.72;5009964;28;45209;-82
2022/04/05 04:34:17;;;;;;;;;20.25;18.25;;;;;9.43;72.28;100726.56;5004033;28;45452;-82
2022/04/05 04:36:43;;;;;;;;;16.50;16.25;;;;;9.42;72.74;100713.38;5009190;28;45261;-82
2022/04/05 04:39:09;;;;;;;;;16.00;15.75;;;;;9.68;72.70;100762.50;4990924;28;45138;-82
2022/04/05 04:41:35;;;;;;;;;16.50;15.50;;;;;9.34;72.55;100701.69;5001341;28;45023;-82
2022/04/05 04:44:00;;;;;;;;;18.50;17.50;;;;;9.20;72.93;100683.69;4995826;28;46410;-82
2022/04/05 04:46:25;;;;;;;;;17.00;15.00;;;;;9.30;73.03;100703.28;5009392;28;45062;-82
2022/04/05 04:48:51;;;;;;;;;18.00;18.00;;;;;9.33;73.18;100700.81;5002390;28;45094;-82
2022/04/05 04:51:16;;;;;;;;;20.50;18.00;;;;;9.33;73.33;100690.31;5021676;28;45276;-82
2022/04/05 04:53:42;;;;;;;;;21.33;18.33;;;;;9.69;73.41;100748.53;5029615;28;46009;-82
2022/04/05 04:56:08;;;;;;;;;17.25;17.00;;;;;9.13;73.25;100662.44;5001941;28;45167;-83
2022/04/05 04:58:33;;;;;;;;;15.50;15.00;;;;;9.49;73.28;100731.13;4991384;28;45043;-82
2022/04/05 05:00:59;;;;;;;;;15.00;13.75;;;;;9.33;72.86;100705.16;4990948;28;45102;-82
2022/04/05 05:03:24;;;;;;;;;14.50;13.75;;;;;9.33;73.02;100697.28;5008822;28;45734;-83
2022/04/05 05:05:50;;;;;;;;;7.75;7.75;;;;;9.46;72.89;100725.78;5008174;28;45097;-82
2022/04/05 05:08:15;;;;;;;;;18.00;17.25;;;;;9.27;73.37;100704.09;5009034;28;45161;-82
2022/04/05 05:10:40;;;;;;;;;15.67;15.33;;;;;9.42;73.97;100727.38;5008792;28;45136;-82
2022/04/05 05:13:06;;;;;;;;;17.33;16.00;;;;;9.23;73.86;100691.69;5007431;28;45466;-82
2022/04/05 05:15:31;;;;;;;;;17.25;15.50;;;;;9.25;74.40;100694.34;5000255;28;45277;-81
2022/04/05 05:17:56;;;;;;;;;14.25;14.00;;;;;9.54;75.55;100753.19;5012453;28;45795;-83
2022/04/05 05:20:22;;;;;;;;;16.25;15.50;;;;;9.44;74.88;100740.56;5017627;28;45726;-82
2022/04/05 05:22:47;;;;;;;;;13.50;13.25;;;;;9.25;75.59;100707.47;4991082;28;45954;-81
2022/04/05 05:25:14;;;;;;;;;15.50;15.25;;;;;9.53;75.61;100754.03;4990389;28;45476;-82
2022/04/05 05:27:39;;;;;;;;;16.00;15.75;;;;;9.35;75.03;100722.72;4991676;28;46098;-86
2022/04/05 05:30:07;;;;;;;;;16.25;15.75;;;;;9.45;74.68;100729.22;5000289;28;45449;-82
2022/04/05 05:32:40;;;;;;;;;14.50;14.50;;;;;9.21;74.59;100695.06;4997686;28;45549;-82
2022/04/05 05:35:05;;;;;;;;;16.25;15.00;;;;;9.41;74.92;100732.56;5004684;28;45327;-83
2022/04/05 05:37:31;;;;;;;;;16.75;15.00;;;;;9.52;74.73;100750.53;5007143;28;45264;-82
2022/04/05 05:39:56;;;;;;;;;14.33;13.67;;;;;9.29;74.31;100706.75;5020349;28;45167;-83
2022/04/05 05:42:21;;;;;;;;;11.00;10.00;;;;;9.41;74.46;100725.59;5010890;28;46112;-83
2022/04/05 05:44:47;;;;;;;;;18.00;17.25;;;;;9.36;74.83;100716.66;5008815;28;45141;-83
2022/04/05 05:47:12;;;;;;;;;14.00;13.75;;;;;9.02;74.70;100638.41;4990941;28;45185;-82
2022/04/05 05:49:38;;;;;;;;;18.50;16.00;;;;;9.26;74.68;100681.31;4990899;28;45398;-83
2022/04/05 05:52:04;;;;;;;;;16.75;15.50;;;;;9.75;74.59;100763.59;4990062;28;47230;-81
2022/04/05 05:54:29;;;;;;;;;15.50;15.00;;;;;9.77;74.87;100760.22;5008357;28;45243;-83
2022/04/05 05:56:55;;;;;;;;;12.67;12.00;;;;;9.34;74.74;100686.84;5007905;28;45245;-84
2022/04/05 05:59:20;;;;;;;;;17.00;16.00;;;;;9.61;75.64;100718.50;4987533;28;45434;-83
2022/04/05 06:01:45;;;;;;;;;17.75;16.25;;;;;9.72;75.35;100746.03;5007955;28;45315;-82
2022/04/05 06:04:11;;;;;;;;;15.75;15.75;;;;;9.83;75.69;100768.31;5007401;28;45738;-83
2022/04/05 06:06:36;;;;;;;;;15.25;14.50;;;;;9.51;75.44;100703.25;5008402;28;45379;-83
2022/04/05 06:09:02;;;;;;;;;18.50;17.00;;;;;9.64;75.18;100720.34;5007725;28;45418;-82
2022/04/05 06:11:27;;;;;;;;;15.50;14.50;;;;;9.57;75.09;100703.47;5007658;28;46106;-82
2022/04/05 06:13:52;;;;;;;;;20.75;17.00;;;;;9.58;74.79;100705.25;5006327;28;45469;-80
2022/04/05 06:16:18;;;;;;;;;15.75;15.75;;;;;9.99;75.13;100774.16;5007813;28;45538;-82
2022/04/05 06:18:47;;;;;;;;;14.75;14.75;;;;;10.02;76.16;100772.53;5008393;28;45063;-82
2022/04/05 06:21:16;;;;;;;;;19.00;17.75;;;;;9.95;75.37;100762.66;5007122;28;45466;-82
2022/04/05 06:23:42;;;;;;;;;16.00;16.00;;;;;10.07;74.67;100778.84;4990131;28;45534;-82
2022/04/05 06:26:08;;;;;;;;;17.00;16.00;;;;;9.81;74.71;100730.63;5006270;28;45107;-82
2022/04/05 06:28:33;;;;;;;;;19.75;16.75;;;;;10.11;74.98;100787.75;4988194;28;45344;-83
2022/04/05 06:30:59;;;;;;;;;15.00;13.50;;;;;9.99;74.38;100769.78;5021944;28;47631;-83
2022/04/05 06:33:24;;;;;;;;;21.50;20.00;;;;;9.99;74.57;100769.78;4985899;28;45446;-82
2022/04/05 06:35:53;;;;;;;;;17.25;16.75;;;;;10.03;74.86;100776.06;4987191;28;45296;-83
2022/04/05 06:38:18;;;;;;;;;22.25;19.50;;;;;10.06;74.45;100778.81;5004208;28;45241;-84
2022/04/05 06:40:44;;;;;;;;;24.00;22.50;;;;;9.85;74.30;100744.75;5006595;28;45919;-82
2022/04/05 06:43:10;;;;;;;;;18.75;17.00;;;;;10.11;74.29;100778.97;5007367;28;45192;-86
2022/04/05 06:45:36;;;;;;;;;17.00;17.00;;;;;10.11;74.22;100779.88;4990052;28;46227;-88
2022/04/05 06:48:03;;;;;;;;;20.50;18.75;;;;;10.03;74.52;100776.94;5007726;28;45153;-85
2022/04/05 06:50:28;;;;;;;;;18.50;18.00;;;;;9.87;74.63;100727.34;5008043;28;46136;-89
2022/04/05 06:52:58;;;;;;;;;22.75;20.00;;;;;9.68;74.55;100690.75;5007414;28;45144;-77
2022/04/05 06:55:25;;;;;;;;;17.50;17.00;;;;;9.98;74.23;100738.22;5008154;28;45248;-79
2022/04/05 06:57:51;;;;;;;;;16.75;16.75;;;;;10.33;74.56;100800.84;5008458;28;45015;-85
2022/04/05 07:00:22;;;;;;;;;17.25;16.25;;;;;10.09;74.76;100745.66;5008151;28;45775;-87
2022/04/05 07:02:47;;;;;;;;;17.00;15.50;;;;;10.30;74.58;100781.47;5007831;28;45635;-84
2022/04/05 07:05:13;;;;;;;;;16.25;16.00;;;;;10.17;76.24;100760.81;5007171;28;45270;-87
2022/04/05 07:07:39;;;;;;;;;16.50;16.50;;;;;10.21;74.97;100768.84;5008032;28;45241;-85
2022/04/05 07:10:08;;;;;;;;;18.75;17.75;;;;;10.25;75.15;100762.03;5010141;28;46920;-86
2022/04/05 07:12:34;;;;;;;;;19.50;18.00;;;;;10.16;75.05;100733.66;4995593;28;45397;-88
2022/04/05 07:15:00;;;;;;;;;18.25;17.25;;;;;10.46;75.00;100788.16;5013303;28;45180;-86
2022/04/05 07:17:25;;;;;;;;;20.50;20.25;;;;;10.52;75.07;100785.75;5011681;28;45149;-86
2022/04/05 07:19:52;;;;;;;;;19.00;18.00;;;;;10.35;74.77;100750.13;5010744;28;45098;-85
2022/04/05 07:22:18;;;;;;;;;17.75;16.25;;;;;10.42;74.46;100766.13;5011155;28;45219;-85
2022/04/05 07:24:43;;;;;;;;;16.00;15.75;;;;;10.40;74.56;100759.06;5010583;28;45302;-85
2022/04/05 07:27:08;;;;;;;;;14.50;14.50;;;;;10.17;74.58;100721.41;5010712;28;45122;-81
2022/04/05 07:29:34;;;;;;;;;16.25;16.00;;;;;10.42;74.98;100765.25;5010734;28;45304;-84
2022/04/05 07:32:00;;;;;;;;;19.50;18.50;;;;;10.13;74.63;100709.00;4992604;28;45135;-81
2022/04/05 07:34:26;;;;;;;;;17.00;17.00;;;;;10.29;74.87;100741.16;5011264;28;45285;-86
2022/04/05 07:36:51;;;;;;;;;20.25;19.00;;;;;10.28;74.89;100731.50;5010491;28;45300;-84
2022/04/05 07:39:19;;;;;;;;;19.00;18.50;;;;;10.39;74.97;100744.09;5010813;28;46012;-87
2022/04/05 07:41:44;;;;;;;;;20.75;17.25;;;;;10.08;75.29;100674.72;5010292;28;45519;-88
2022/04/05 07:44:10;;;;;;;;;19.00;17.00;;;;;10.74;75.27;100769.91;5010651;28;45459;-85
2022/04/05 07:46:35;;;;;;;;;16.50;16.25;;;;;10.69;75.05;100737.31;5010655;28;45054;-84
2022/04/05 07:49:01;;;;;;;;;17.00;16.75;;;;;10.63;74.60;100721.28;5025271;28;46708;-86
2022/04/05 07:51:27;;;;;;;;;19.25;18.25;;;;;10.74;74.55;100740.97;5010657;28;45116;-84
2022/04/05 07:53:53;;;;;;;;;19.75;17.00;;;;;10.71;74.67;100738.22;5010653;28;45217;-85
2022/04/05 07:56:18;;;;;;;;;18.50;17.25;;;;;10.68;74.27;100727.59;5010440;28;45212;-86
2022/04/05 07:58:43;;;;;;;;;14.75;14.75;;;;;10.65;74.60;100711.75;5010474;28;45291;-87
2022/04/05 08:01:09;;;;;;;;;19.50;17.50;;;;;10.99;74.56;100768.97;5009973;28;45090;-84
2022/04/05 08:03:35;;;;;;;;;19.00;17.00;;;;;10.85;74.48;100759.75;5010488;28;45338;-83
2022/04/05 08:06:01;;;;;;;;;17.00;16.00;;;;;10.90;74.37;100763.41;5010461;28;44927;-87
2022/04/05 08:08:26;;;;;;;;;18.33;17.33;;;;;10.81;74.76;100749.94;5009496;28;45169;-81
2022/04/05 08:10:51;;;;;;;;;16.75;16.00;;;;;10.83;74.89;100749.16;5007554;28;45386;-85
2022/04/05 08:13:17;;;;;;;;;17.33;17.00;;;;;11.04;74.65;100766.50;5010434;28;45502;-86
2022/04/05 08:15:43;;;;;;;;;23.25;20.00;;;;;10.95;74.48;100739.91;5010406;28;45266;-86
2022/04/05 08:18:09;;;;;;;;;19.00;17.75;;;;;11.01;74.73;100742.72;5008995;28;45560;-81
2022/04/05 08:20:36;;;;;;;;;17.25;17.00;;;;;11.00;74.66;100720.78;4992398;28;45119;-87
2022/04/05 08:23:05;;;;;;;;;16.75;14.75;;;;;11.21;74.33;100752.16;5009920;28;45352;-85
2022/04/05 08:25:30;;;;;;;;;18.00;18.00;;;;;11.12;74.67;100738.69;5010058;28;45399;-86
2022/04/05 08:27:57;;;;;;;;;20.50;19.75;;;;;11.37;74.55;100785.97;5008293;28;45293;-85
2022/04/05 08:30:22;;;;;;;;;16.50;15.50;;;;;11.14;74.15;100742.28;4992796;28;45181;-86
2022/04/05 08:32:48;;;;;;;;;18.25;17.25;;;;;11.41;74.03;100788.72;5010115;28;45694;-90
2022/04/05 08:35:16;;;;;;;;;20.25;18.00;;;;;10.86;74.29;100701.03;5010068;28;45311;-86
2022/04/05 08:37:43;;;;;;;;;20.25;18.75;;;;;11.40;74.62;100790.47;5011864;28;45341;-85
2022/04/05 08:40:10;;;;;;;;;18.25;17.25;;;;;11.10;74.36;100730.75;4997817;28;45234;-85
2022/04/05 08:42:38;;;;;;;;;23.75;22.25;;;;;11.49;74.70;100795.13;5012406;28;45082;-87
2022/04/05 08:45:10;;;;;;;;;19.50;18.50;;;;;11.22;74.31;100743.41;5011175;28;44927;-83
2022/04/05 08:47:37;;;;;;;;;18.75;17.75;;;;;11.57;74.20;100796.25;4995247;28;45680;-86
2022/04/05 08:50:03;;;;;;;;;18.75;16.25;;;;;11.56;74.01;100791.84;5011759;28;45328;-81
2022/04/05 08:52:29;;;;;;;;;19.00;18.50;;;;;11.62;74.15;100792.03;5011613;28;45243;-87
2022/04/05 08:54:55;;;;;;;;;16.50;15.50;;;;;11.22;73.63;100732.88;5011032;28;45311;-85
2022/04/05 08:57:20;;;;;;;;;17.75;16.50;;;;;11.28;74.07;100724.28;4991553;28;46584;-84
2022/04/05 08:59:46;;;;;;;;;20.50;18.25;;;;;11.54;74.17;100769.84;5002158;28;45526;-86
2022/04/05 09:02:13;;;;;;;;;20.50;18.50;;;;;11.19;74.21;100706.50;5008476;28;45239;-84
2022/04/05 09:04:39;;;;;;;;;18.50;18.25;;;;;11.65;74.53;100794.75;5009677;28;45076;-85
2022/04/05 09:07:37;;;;;;;;;16.75;15.25;;;;;11.59;74.62;100771.78;5006605;28;47486;-79
2022/04/05 09:10:06;;;;;;;;;21.00;19.00;;;;;11.47;74.13;100755.59;4996190;28;45608;-85
2022/04/05 09:12:58;;;;;;;;;16.75;15.50;;;;;10.69;74.34;100619.03;5010038;28;45113;-85
2022/04/05 09:15:25;;;;;;;;;19.00;17.75;;;;;11.29;74.87;100724.34;5007101;28;45351;-86
2022/04/05 09:17:52;;;;;;;;;21.50;20.00;;;;;11.43;75.38;100747.56;5008642;28;45806;-84
2022/04/05 09:20:19;;;;;;;;;19.00;19.00;;;;;11.64;74.91;100785.09;5009498;28;45212;-81
2022/04/05 09:22:45;;;;;;;;;18.50;17.50;;;;;11.40;74.89;100727.31;5009088;28;45028;-86
2022/04/05 09:25:12;;;;;;;;;18.75;18.50;;;;;11.76;74.92;100788.06;5007525;28;45537;-87
2022/04/05 09:27:56;;;;;;;;;17.00;16.25;;;;;11.41;74.60;100722.94;5008860;28;45441;-84
2022/04/05 09:30:31;;;;;;;;;18.75;17.50;;;;;11.48;76.29;100722.28;5008527;28;45195;-83
2022/04/05 09:32:57;;;;;;;;;18.50;18.00;;;;;11.38;75.00;100700.06;5008452;28;45119;-84
2022/04/05 09:35:39;;;;;;;;;16.75;15.75;;;;;11.84;75.09;100762.91;5009569;28;45498;-86
2022/04/05 09:38:12;;;;;;;;;17.75;17.50;;;;;12.10;74.76;100791.75;5008549;28;47240;-85
2022/04/05 09:40:38;;;;;;;;;20.00;18.75;;;;;11.86;74.26;100750.66;5008307;28;45685;-86
2022/04/05 09:43:14;;;;;;;;;13.00;12.00;;;;;12.09;74.36;100787.34;5008929;28;45125;-86
2022/04/05 09:45:57;;;;;;;;;20.50;18.50;;;;;11.82;74.25;100750.53;5008976;28;45276;-86
2022/04/05 09:48:32;;;;;;;;;24.00;20.25;;;;;11.76;74.38;100730.16;4990873;28;46262;-86
2022/04/05 09:51:12;;;;;;;;;21.50;19.50;;;;;12.03;74.10;100774.88;5008970;28;45757;-88
2022/04/05 09:53:40;;;;;;;;;22.75;19.00;;;;;12.20;74.40;100796.44;5008424;28;45439;-85
2022/04/05 09:56:13;;;;;;;;;15.00;15.00;;;;;12.00;74.43;100763.34;5007255;28;45423;-84
2022/04/05 09:58:48;;;;;;;;;17.00;16.50;;;;;12.08;73.90;100764.47;4991037;28;46128;-83
2022/04/05 10:01:14;;;;;;;;;17.25;15.75;;;;;12.05;73.83;100764.38;4990931;28;45253;-86
2022/04/05 10:03:54;;;;;;;;;19.50;18.00;;;;;11.79;73.94;100714.44;5008885;28;45241;-86
2022/04/05 10:06:21;;;;;;;;;19.00;18.75;;;;;11.84;74.04;100715.50;5008611;28;45252;-85
2022/04/05 10:08:46;;;;;;;;;17.75;17.50;;;;;12.21;75.00;100756.06;5008192;28;45774;-87
2022/04/05 10:11:13;;;;;;;;;18.50;18.50;;;;;12.34;73.95;100757.31;5007522;28;45146;-87
2022/04/05 10:13:39;;;;;;;;;20.50;18.50;;;;;12.17;74.12;100711.13;5009227;28;45201;-87
2022/04/05 10:16:05;;;;;;;;;16.75;15.25;;;;;12.34;73.76;100726.56;5008105;28;45338;-87
2022/04/05 10:18:35;;;;;;;;;19.00;18.00;;;;;12.52;73.43;100749.00;5008779;28;45432;-87
2022/04/05 10:21:03;;;;;;;;;16.00;14.75;;;;;12.62;73.82;100767.75;5009801;28;45239;-86
2022/04/05 10:23:30;;;;;;;;;22.75;21.50;;;;;12.61;73.53;100759.78;5008235;28;45104;-87
2022/04/05 10:25:57;;;;;;;;;17.25;14.00;;;;;12.77;73.74;100782.19;4990349;28;45292;-85
2022/04/05 10:28:29;;;;;;;;;14.25;13.50;;;;;12.83;73.72;100787.63;5008108;28;45417;-86
2022/04/05 10:31:05;;;;;;;;;18.00;17.00;;;;;12.83;73.78;100780.59;5008012;28;45095;-86
2022/04/05 10:33:40;;;;;;;;;20.75;18.00;;;;;12.59;73.42;100732.50;4990439;28;45218;-85
2022/04/05 10:36:06;;;;;;;;;16.25;16.00;;;;;12.69;72.95;100767.91;5008331;28;45113;-85
2022/04/05 10:38:31;;;;;;;;;19.00;17.00;;;;;12.14;73.37;100688.25;5006748;28;47162;-86
2022/04/05 10:41:23;;;;;;;;;17.25;16.75;;;;;12.45;73.52;100737.38;5007699;28;45244;-84
2022/04/05 10:44:16;;;;;;;;;16.50;16.50;;;;;12.78;73.21;100786.59;5011585;28;45185;-84
2022/04/05 10:46:50;;;;;;;;;13.00;12.00;;;;;12.37;73.31;100726.66;4993171;28;45206;-85
2022/04/05 10:49:45;;;;;;;;;17.00;16.25;;;;;12.39;73.58;100730.22;4994102;28;47795;-87
2022/04/05 10:52:12;;;;;;;;;14.50;13.75;;;;;12.56;73.59;100749.13;5011513;28;45860;-88
2022/04/05 10:54:40;;;;;;;;;11.75;11.25;;;;;12.58;73.69;100738.63;5009869;28;44978;-85
2022/04/05 10:57:21;;;;;;;;;12.00;12.00;;;;;12.88;73.26;100770.16;5011540;28;45197;-86
2022/04/05 11:00:07;;;;;;;;;13.75;13.75;;;;;12.85;73.20;100752.50;5011459;28;45535;-86
2022/04/05 11:02:37;;;;;;;;;14.25;13.25;;;;;13.06;73.20;100764.47;5010800;28;45384;-87
2022/04/05 11:05:13;;;;;;;;;12.75;11.75;;;;;13.18;72.92;100764.75;5011359;28;45283;-82
2022/04/05 11:07:51;;;;;;;;;12.50;11.75;;;;;13.29;72.94;100758.00;4992796;28;45797;-82
2022/04/05 11:10:19;;;;;;;;;12.00;11.50;;;;;13.41;72.83;100742.47;5011335;28;45811;-85
2022/04/05 11:12:44;;;;;;;;;12.75;12.50;;;;;13.56;72.56;100746.31;5011148;28;45491;-86
2022/04/05 11:15:10;;;;;;;;;17.50;16.50;;;;;13.30;72.05;100704.38;5011271;28;45052;-86